Time;durP1;ratioP1;P1;durP2;ratioP2;P2;SDS_P1;SDS_P2;PMS_P1;PMS_P2;Temp;Humidity;BMP_temperature;BMP_pressure;BME280_temperature;BME280_humidity;BME280_pressure;Samples;Min_cycle;Max_cycle;Signal;HPM_P1;HPM_P2
2022/03/29 00:01:52;;;;;;;21.45;11.43;;;;;;;;;;5040887;28;20498;-65
2022/03/29 00:04:18;;;;;;;22.67;11.90;;;;;;;;;;5043599;28;20045;-65
2022/03/29 00:06:44;;;;;;;19.63;11.50;;;;;;;;;;5024367;28;20144;-65
2022/03/29 00:09:10;;;;;;;21.50;11.70;;;;;;;;;;5041746;28;20102;-65
2022/03/29 00:11:36;;;;;;;21.80;11.65;;;;;;;;;;5043689;28;20040;-65
2022/03/29 00:14:03;;;;;;;19.77;12.43;;;;;;;;;;5041262;28;20045;-65
2022/03/29 00:16:29;;;;;;;21.20;12.55;;;;;;;;;;5043040;28;20043;-65
2022/03/29 00:18:55;;;;;;;24.35;12.32;;;;;;;;;;5042352;28;20132;-65
2022/03/29 00:21:21;;;;;;;25.77;13.35;;;;;;;;;;5044041;28;20045;-65
2022/03/29 00:23:48;;;;;;;23.65;14.20;;;;;;;;;;5019711;28;20158;-65
2022/03/29 00:26:14;;;;;;;25.45;13.50;;;;;;;;;;5042977;28;20127;-65
2022/03/29 00:28:40;;;;;;;24.42;13.85;;;;;;;;;;5042119;28;20045;-65
2022/03/29 00:31:07;;;;;;;25.02;13.95;;;;;;;;;;5040461;28;20040;-65
2022/03/29 00:33:33;;;;;;;23.25;14.30;;;;;;;;;;5039292;28;20033;-65
2022/03/29 00:35:59;;;;;;;22.90;13.18;;;;;;;;;;5041588;28;20045;-65
2022/03/29 00:38:25;;;;;;;22.00;12.82;;;;;;;;;;5039874;28;20045;-65
2022/03/29 00:40:51;;;;;;;25.90;14.73;;;;;;;;;;5042486;28;20076;-65
2022/03/29 00:43:18;;;;;;;25.30;14.07;;;;;;;;;;5042861;28;20051;-65
2022/03/29 00:45:45;;;;;;;26.20;14.38;;;;;;;;;;5041692;28;20033;-65
2022/03/29 00:48:12;;;;;;;24.70;12.98;;;;;;;;;;5024970;28;20102;-65
2022/03/29 00:50:39;;;;;;;25.88;13.82;;;;;;;;;;5038904;28;20036;-65
2022/03/29 00:53:05;;;;;;;23.48;13.85;;;;;;;;;;5043028;28;20044;-66
2022/03/29 00:55:32;;;;;;;26.45;14.10;;;;;;;;;;5033155;28;20041;-65
2022/03/29 00:57:59;;;;;;;25.42;13.30;;;;;;;;;;5042730;28;20132;-65
2022/03/29 01:00:25;;;;;;;25.95;14.35;;;;;;;;;;5040920;28;20049;-65
2022/03/29 01:02:52;;;;;;;29.70;13.45;;;;;;;;;;5042424;28;20079;-65
2022/03/29 01:05:18;;;;;;;29.48;14.07;;;;;;;;;;5043608;28;20049;-65
2022/03/29 01:10:17;;;;;;;27.80;13.25;;;;;;;;;;5043935;22;20056;-65
2022/03/29 01:12:43;;;;;;;22.52;12.95;;;;;;;;;;5045261;28;20037;-65
2022/03/29 01:15:10;;;;;;;26.00;12.43;;;;;;;;;;5046837;28;20040;-65
2022/03/29 01:17:39;;;;;;;19.75;11.60;;;;;;;;;;5045321;28;20115;-65
2022/03/29 01:20:07;;;;;;;24.38;13.30;;;;;;;;;;5046431;28;20052;-65
2022/03/29 01:22:34;;;;;;;21.48;12.43;;;;;;;;;;5045352;28;20470;-65
2022/03/29 01:25:00;;;;;;;23.17;12.18;;;;;;;;;;5046291;28;20072;-65
2022/03/29 01:27:26;;;;;;;22.83;12.88;;;;;;;;;;5045625;28;20057;-65
2022/03/29 01:29:57;;;;;;;22.35;12.43;;;;;;;;;;5046352;28;20053;-66
2022/03/29 01:32:27;;;;;;;21.40;11.60;;;;;;;;;;5046552;28;20733;-66
2022/03/29 01:34:54;;;;;;;22.63;12.75;;;;;;;;;;5044276;28;20053;-65
2022/03/29 01:37:20;;;;;;;24.05;12.25;;;;;;;;;;5028855;28;20076;-65
2022/03/29 01:39:46;;;;;;;24.90;12.02;;;;;;;;;;5041405;28;20051;-65
2022/03/29 01:42:12;;;;;;;22.42;12.90;;;;;;;;;;5046293;28;20029;-65
2022/03/29 01:44:39;;;;;;;26.10;12.70;;;;;;;;;;5045778;28;20037;-66
2022/03/29 01:47:06;;;;;;;24.77;12.93;;;;;;;;;;5042337;28;20453;-65
2022/03/29 01:49:32;;;;;;;24.88;12.52;;;;;;;;;;5044919;28;20685;-66
2022/03/29 01:51:59;;;;;;;23.83;13.60;;;;;;;;;;5045398;28;20068;-65
2022/03/29 01:54:25;;;;;;;26.83;13.10;;;;;;;;;;5045138;28;20064;-65
2022/03/29 01:56:53;;;;;;;25.75;13.30;;;;;;;;;;5024874;28;20056;-65
2022/03/29 01:59:19;;;;;;;25.45;13.75;;;;;;;;;;5045310;28;20044;-65
2022/03/29 02:01:47;;;;;;;26.15;13.45;;;;;;;;;;5044107;28;20036;-65
2022/03/29 02:04:13;;;;;;;26.85;13.13;;;;;;;;;;5045445;28;20520;-65
2022/03/29 02:06:40;;;;;;;25.85;13.20;;;;;;;;;;5027292;28;20049;-65
2022/03/29 02:09:06;;;;;;;22.60;12.48;;;;;;;;;;5026879;28;20065;-65
2022/03/29 02:11:33;;;;;;;24.60;13.80;;;;;;;;;;5045242;28;20435;-65
2022/03/29 02:13:59;;;;;;;25.27;13.52;;;;;;;;;;5045625;28;20043;-65
2022/03/29 02:16:25;;;;;;;29.52;14.75;;;;;;;;;;5044489;28;20048;-65
2022/03/29 02:18:52;;;;;;;29.13;14.50;;;;;;;;;;5046163;28;20048;-65
2022/03/29 02:21:18;;;;;;;26.48;14.35;;;;;;;;;;5044775;28;20040;-65
2022/03/29 02:23:44;;;;;;;25.40;12.80;;;;;;;;;;5022840;28;20573;-65
2022/03/29 02:26:10;;;;;;;28.23;14.68;;;;;;;;;;5045515;28;20386;-66
2022/03/29 02:28:37;;;;;;;30.27;14.68;;;;;;;;;;5043962;28;20504;-66
2022/03/29 02:31:03;;;;;;;25.98;13.75;;;;;;;;;;5045540;28;20129;-65
2022/03/29 02:33:29;;;;;;;33.38;13.88;;;;;;;;;;5038117;28;20079;-65
2022/03/29 02:35:55;;;;;;;31.25;13.82;;;;;;;;;;5026711;28;20041;-65
2022/03/29 02:38:21;;;;;;;30.27;14.65;;;;;;;;;;5040986;28;20455;-65
2022/03/29 02:40:48;;;;;;;28.52;13.68;;;;;;;;;;5045223;28;20040;-65
2022/03/29 02:43:15;;;;;;;28.05;13.90;;;;;;;;;;5044691;28;20114;-65
2022/03/29 02:45:41;;;;;;;28.25;14.65;;;;;;;;;;5044886;28;20498;-65
2022/03/29 02:48:07;;;;;;;27.85;14.23;;;;;;;;;;5042469;28;20120;-65
2022/03/29 02:50:34;;;;;;;27.73;14.40;;;;;;;;;;5041731;28;20475;-65
2022/03/29 02:53:01;;;;;;;30.52;15.10;;;;;;;;;;5043094;28;20090;-65
2022/03/29 02:55:29;;;;;;;26.52;13.82;;;;;;;;;;5025853;28;20045;-65
2022/03/29 02:57:56;;;;;;;30.33;14.32;;;;;;;;;;5044850;28;20048;-65
2022/03/29 03:00:23;;;;;;;25.80;13.95;;;;;;;;;;5044728;28;20252;-66
2022/03/29 03:02:50;;;;;;;24.90;13.85;;;;;;;;;;5044469;28;20045;-66
2022/03/29 03:05:19;;;;;;;26.00;13.73;;;;;;;;;;5040718;28;20053;-67
2022/03/29 03:07:45;;;;;;;;;;;;;;;;;;5044789;28;20114;-67
2022/03/29 03:10:12;;;;;;;30.60;13.48;;;;;;;;;;5043007;28;20022;-67
2022/03/29 03:12:41;;;;;;;26.00;14.00;;;;;;;;;;5044000;28;20056;-67
2022/03/29 03:15:08;;;;;;;24.25;12.95;;;;;;;;;;5043883;28;20096;-68
2022/03/29 03:17:34;;;;;;;31.27;15.50;;;;;;;;;;5041025;28;20053;-66
2022/03/29 03:20:00;;;;;;;30.15;15.07;;;;;;;;;;5044843;28;20041;-66
2022/03/29 03:22:27;;;;;;;26.13;13.85;;;;;;;;;;5039469;28;20462;-67
2022/03/29 03:24:54;;;;;;;27.23;14.63;;;;;;;;;;5043775;28;20146;-66
2022/03/29 03:27:20;;;;;;;30.77;14.23;;;;;;;;;;5043812;28;20401;-66
2022/03/29 03:29:47;;;;;;;29.00;14.32;;;;;;;;;;5043609;28;20399;-65
2022/03/29 03:32:13;;;;;;;27.10;14.23;;;;;;;;;;5043729;28;20036;-66
2022/03/29 03:34:40;;;;;;;28.92;15.02;;;;;;;;;;5044202;28;20045;-65
2022/03/29 03:37:07;;;;;;;27.88;14.77;;;;;;;;;;5021326;28;20041;-66
2022/03/29 03:39:34;;;;;;;29.88;14.68;;;;;;;;;;5039167;28;20049;-65
2022/03/29 03:42:01;;;;;;;29.17;14.48;;;;;;;;;;5026244;28;20478;-65
2022/03/29 03:44:27;;;;;;;28.73;14.35;;;;;;;;;;5040668;28;20052;-65
2022/03/29 03:46:53;;;;;;;26.10;14.27;;;;;;;;;;5044029;28;20037;-65
2022/03/29 03:49:19;;;;;;;30.88;15.38;;;;;;;;;;5035224;28;20072;-65
2022/03/29 03:51:46;;;;;;;28.50;14.23;;;;;;;;;;5025840;28;20497;-65
2022/03/29 03:54:12;;;;;;;30.67;14.68;;;;;;;;;;5042049;28;20047;-65
2022/03/29 03:56:38;;;;;;;28.63;14.13;;;;;;;;;;5043688;28;20132;-65
2022/03/29 03:59:04;;;;;;;29.48;14.15;;;;;;;;;;5042931;28;20041;-65
2022/03/29 04:01:30;;;;;;;29.30;14.82;;;;;;;;;;5043817;28;20048;-65
2022/03/29 04:03:57;;;;;;;27.77;14.90;;;;;;;;;;5043138;28;20045;-65
2022/03/29 04:06:23;;;;;;;30.48;14.23;;;;;;;;;;5039872;28;20132;-65
2022/03/29 04:08:49;;;;;;;29.83;14.60;;;;;;;;;;5040677;28;20052;-65
2022/03/29 04:11:16;;;;;;;29.42;14.55;;;;;;;;;;5043167;28;20048;-65
2022/03/29 04:13:42;;;;;;;32.88;15.27;;;;;;;;;;5043734;28;20045;-65
2022/03/29 04:16:08;;;;;;;31.42;15.55;;;;;;;;;;5039166;28;20034;-65
2022/03/29 04:18:34;;;;;;;30.80;14.70;;;;;;;;;;5042870;28;20067;-66
2022/03/29 04:21:01;;;;;;;35.38;14.80;;;;;;;;;;5042826;28;20496;-66
2022/03/29 04:23:28;;;;;;;29.88;14.65;;;;;;;;;;5042638;28;20040;-65
2022/03/29 04:25:54;;;;;;;35.10;15.00;;;;;;;;;;5040905;28;20049;-66
2022/03/29 04:28:20;;;;;;;26.85;14.52;;;;;;;;;;5042490;28;20044;-65
2022/03/29 04:30:46;;;;;;;30.08;15.35;;;;;;;;;;5039255;28;20045;-65
2022/03/29 04:33:14;;;;;;;32.15;14.68;;;;;;;;;;5043613;28;20549;-65
2022/03/29 04:35:40;;;;;;;31.80;14.73;;;;;;;;;;5042471;28;20045;-65
2022/03/29 04:38:06;;;;;;;32.42;16.05;;;;;;;;;;5039546;28;20518;-65
2022/03/29 04:40:32;;;;;;;30.60;14.38;;;;;;;;;;5024631;28;20082;-66
2022/03/29 04:43:00;;;;;;;30.75;14.43;;;;;;;;;;5042550;28;20053;-65
2022/03/29 04:45:26;;;;;;;31.13;14.65;;;;;;;;;;5042633;28;20560;-66
2022/03/29 04:47:52;;;;;;;34.42;15.40;;;;;;;;;;5037972;28;20087;-65
2022/03/29 04:50:19;;;;;;;29.90;14.80;;;;;;;;;;5043361;28;20037;-66
2022/03/29 04:52:46;;;;;;;31.65;15.13;;;;;;;;;;5039297;28;20048;-65
2022/03/29 04:55:13;;;;;;;35.47;15.70;;;;;;;;;;5025427;28;20049;-65
2022/03/29 04:57:41;;;;;;;30.25;14.88;;;;;;;;;;5039286;28;20041;-65
2022/03/29 05:00:08;;;;;;;30.60;14.07;;;;;;;;;;5025185;28;20531;-66
2022/03/29 05:02:35;;;;;;;36.30;14.98;;;;;;;;;;5024146;28;20087;-66
2022/03/29 05:05:02;;;;;;;32.25;16.10;;;;;;;;;;5041495;28;20783;-66
2022/03/29 05:07:28;;;;;;;33.95;15.77;;;;;;;;;;5042814;28;20383;-65
2022/03/29 05:09:55;;;;;;;37.03;15.75;;;;;;;;;;5041102;28;20422;-65
2022/03/29 05:12:21;;;;;;;39.95;16.30;;;;;;;;;;5043736;28;20457;-65
2022/03/29 05:14:48;;;;;;;40.20;16.85;;;;;;;;;;5039492;28;20140;-66
2022/03/29 05:17:14;;;;;;;33.92;15.75;;;;;;;;;;5042487;28;20037;-66
2022/03/29 05:19:40;;;;;;;29.80;15.63;;;;;;;;;;5038037;28;20059;-66
2022/03/29 05:22:06;;;;;;;33.13;14.95;;;;;;;;;;5042608;28;20037;-66
2022/03/29 05:24:32;;;;;;;35.33;15.90;;;;;;;;;;5040906;28;20778;-66
2022/03/29 05:26:58;;;;;;;33.55;16.58;;;;;;;;;;5042830;28;20037;-65
2022/03/29 05:29:28;;;;;;;37.47;16.42;;;;;;;;;;5041746;28;20048;-65
2022/03/29 05:31:54;;;;;;;35.00;15.05;;;;;;;;;;5042855;28;20052;-66
2022/03/29 05:34:20;;;;;;;31.55;15.88;;;;;;;;;;5042870;28;20036;-66
2022/03/29 05:36:46;;;;;;;35.05;16.10;;;;;;;;;;5041691;28;20051;-67
2022/03/29 05:39:14;;;;;;;37.38;16.15;;;;;;;;;;5041164;28;20037;-67
2022/03/29 05:41:41;;;;;;;32.75;16.30;;;;;;;;;;5039729;28;20033;-67
2022/03/29 05:44:07;;;;;;;45.58;17.23;;;;;;;;;;5040261;28;20048;-67
2022/03/29 05:49:20;;;;;;;34.60;17.00;;;;;;;;;;5038918;28;20129;-67
2022/03/29 05:51:46;;;;;;;;;;;;;;;;;;5038554;28;20767;-67
2022/03/29 05:54:12;;;;;;;32.10;14.25;;;;;;;;;;5043010;28;20003;-66
2022/03/29 05:56:38;;;;;;;35.08;15.85;;;;;;;;;;5042887;28;20044;-67
2022/03/29 05:59:05;;;;;;;37.53;17.05;;;;;;;;;;5040496;28;20123;-67
2022/03/29 06:01:31;;;;;;;39.42;16.70;;;;;;;;;;5037668;28;20124;-66
2022/03/29 06:03:57;;;;;;;35.30;15.70;;;;;;;;;;5042724;28;20474;-66
2022/03/29 06:06:24;;;;;;;36.45;15.77;;;;;;;;;;5039661;28;20064;-66
2022/03/29 06:08:50;;;;;;;34.97;17.30;;;;;;;;;;5035257;28;20053;-67
2022/03/29 06:11:16;;;;;;;42.10;16.77;;;;;;;;;;5045660;28;20095;-66
2022/03/29 06:13:43;;;;;;;42.45;16.52;;;;;;;;;;5045655;28;20494;-66
2022/03/29 06:16:09;;;;;;;40.15;16.27;;;;;;;;;;5044905;28;20041;-66
2022/03/29 06:18:35;;;;;;;43.80;16.42;;;;;;;;;;5045103;28;20040;-66
2022/03/29 06:21:02;;;;;;;33.25;16.30;;;;;;;;;;5026441;28;20049;-66
2022/03/29 06:23:28;;;;;;;35.97;15.60;;;;;;;;;;5044626;28;20574;-66
2022/03/29 06:25:55;;;;;;;32.92;15.70;;;;;;;;;;5041925;28;20060;-67
2022/03/29 06:28:21;;;;;;;38.47;15.75;;;;;;;;;;5045850;28;20463;-67
2022/03/29 06:30:48;;;;;;;40.53;16.73;;;;;;;;;;5045135;28;20041;-67
2022/03/29 06:33:14;;;;;;;33.58;16.35;;;;;;;;;;5045195;28;20087;-66
2022/03/29 06:35:40;;;;;;;41.13;16.48;;;;;;;;;;5045001;28;20040;-67
2022/03/29 06:38:07;;;;;;;34.08;16.00;;;;;;;;;;5044673;28;20099;-67
2022/03/29 06:40:33;;;;;;;35.60;15.70;;;;;;;;;;5044802;28;20106;-67
2022/03/29 06:43:00;;;;;;;35.95;16.23;;;;;;;;;;5045170;28;20053;-67
2022/03/29 06:45:27;;;;;;;35.67;16.60;;;;;;;;;;5044995;28;20044;-67
2022/03/29 06:47:53;;;;;;;43.13;15.77;;;;;;;;;;5045153;28;20040;-66
2022/03/29 06:50:19;;;;;;;36.45;16.02;;;;;;;;;;5045225;28;20037;-66
2022/03/29 06:52:46;;;;;;;35.00;16.50;;;;;;;;;;5043883;28;20056;-66
2022/03/29 06:55:14;;;;;;;38.03;16.27;;;;;;;;;;5045153;28;20414;-66
2022/03/29 06:57:40;;;;;;;37.63;16.98;;;;;;;;;;5043913;28;20052;-66
2022/03/29 07:00:07;;;;;;;52.53;17.02;;;;;;;;;;5044763;28;20037;-66
2022/03/29 07:02:34;;;;;;;37.55;16.70;;;;;;;;;;5043374;28;20044;-66
2022/03/29 07:05:00;;;;;;;40.65;16.02;;;;;;;;;;5045121;28;20041;-66
2022/03/29 07:07:26;;;;;;;37.47;16.83;;;;;;;;;;5043736;28;21680;-66
2022/03/29 07:12:50;;;;;;;37.80;17.40;;;;;;;;;;5044030;28;20041;-66
2022/03/29 07:15:18;;;;;;;42.60;17.00;;;;;;;;;;5044900;28;20052;-66
2022/03/29 07:17:45;;;;;;;41.53;17.55;;;;;;;;;;5044243;28;20061;-66
2022/03/29 07:20:12;;;;;;;42.67;17.63;;;;;;;;;;5044370;28;20679;-66
2022/03/29 07:22:38;;;;;;;36.88;17.05;;;;;;;;;;5043529;28;20087;-66
2022/03/29 07:25:04;;;;;;;37.78;17.67;;;;;;;;;;5044643;28;20048;-66
2022/03/29 07:27:31;;;;;;;43.17;18.88;;;;;;;;;;5043563;28;20506;-66
2022/03/29 07:29:59;;;;;;;43.13;18.48;;;;;;;;;;5026334;28;20461;-66
2022/03/29 07:32:26;;;;;;;45.97;18.67;;;;;;;;;;5026273;28;20043;-66
2022/03/29 07:34:54;;;;;;;43.15;17.63;;;;;;;;;;5044548;28;20079;-65
2022/03/29 07:37:21;;;;;;;41.53;19.08;;;;;;;;;;5043818;28;20529;-66
2022/03/29 07:39:48;;;;;;;41.92;18.10;;;;;;;;;;5026003;28;20044;-66
2022/03/29 07:42:15;;;;;;;40.88;18.13;;;;;;;;;;5043841;28;20077;-66
2022/03/29 07:44:41;;;;;;;45.03;19.00;;;;;;;;;;5043625;28;20044;-66
2022/03/29 07:47:07;;;;;;;40.63;17.55;;;;;;;;;;5043689;28;20048;-66
2022/03/29 07:49:33;;;;;;;38.00;17.80;;;;;;;;;;5043569;28;20041;-66
2022/03/29 07:51:59;;;;;;;43.33;17.60;;;;;;;;;;5043586;28;20043;-66
2022/03/29 07:54:25;;;;;;;41.38;17.23;;;;;;;;;;5043126;28;20045;-66
2022/03/29 07:56:51;;;;;;;37.33;16.73;;;;;;;;;;5044361;28;20576;-66
2022/03/29 07:59:17;;;;;;;31.95;16.02;;;;;;;;;;5043870;28;20037;-66
2022/03/29 08:01:44;;;;;;;42.42;16.95;;;;;;;;;;5043216;28;20041;-67
2022/03/29 08:04:10;;;;;;;42.53;16.48;;;;;;;;;;5043441;28;20128;-67
2022/03/29 08:06:36;;;;;;;36.35;16.88;;;;;;;;;;5043227;28;20551;-67
2022/03/29 08:09:02;;;;;;;39.25;17.73;;;;;;;;;;5042622;28;20075;-67
2022/03/29 08:11:29;;;;;;;35.33;15.75;;;;;;;;;;5043322;28;20048;-67
2022/03/29 08:13:56;;;;;;;37.97;15.93;;;;;;;;;;5039747;28;20049;-67
2022/03/29 08:16:22;;;;;;;29.85;15.00;;;;;;;;;;5043812;28;20041;-67
2022/03/29 08:18:48;;;;;;;39.88;15.30;;;;;;;;;;5043089;28;20175;-67
2022/03/29 08:24:00;;;;;;;36.50;15.65;;;;;;;;;;5042402;28;20048;-67
2022/03/29 08:26:27;;;;;;;31.15;14.90;;;;;;;;;;5042959;28;20041;-66
2022/03/29 08:28:53;;;;;;;36.22;15.18;;;;;;;;;;5043849;28;20045;-67
2022/03/29 08:31:19;;;;;;;33.08;14.50;;;;;;;;;;5043222;28;20037;-66
2022/03/29 08:33:45;;;;;;;35.47;15.52;;;;;;;;;;5025103;28;20517;-67
2022/03/29 08:36:11;;;;;;;35.78;14.57;;;;;;;;;;5042573;28;20504;-67
2022/03/29 08:38:38;;;;;;;41.05;15.30;;;;;;;;;;5038584;28;20056;-67
2022/03/29 08:41:04;;;;;;;38.38;14.13;;;;;;;;;;5043473;28;20153;-66
2022/03/29 08:43:31;;;;;;;43.15;15.07;;;;;;;;;;5042806;28;20490;-66
2022/03/29 08:45:57;;;;;;;36.47;15.63;;;;;;;;;;5043403;28;20045;-66
2022/03/29 08:48:25;;;;;;;31.83;15.40;;;;;;;;;;5043304;28;20045;-66
2022/03/29 08:50:52;;;;;;;37.42;14.55;;;;;;;;;;5043270;28;20094;-66
2022/03/29 08:53:20;;;;;;;39.22;14.35;;;;;;;;;;5041463;28;20043;-66
2022/03/29 08:55:47;;;;;;;36.85;14.68;;;;;;;;;;5043042;28;20103;-66
2022/03/29 08:58:14;;;;;;;42.72;14.82;;;;;;;;;;5039393;28;20048;-66
2022/03/29 09:00:41;;;;;;;39.30;15.15;;;;;;;;;;5042696;28;20409;-66
2022/03/29 09:03:08;;;;;;;44.60;15.32;;;;;;;;;;5025236;28;20110;-66
2022/03/29 09:05:34;;;;;;;42.55;16.50;;;;;;;;;;5042705;28;20108;-66
2022/03/29 09:08:03;;;;;;;48.10;15.48;;;;;;;;;;5042353;28;20056;-65
2022/03/29 09:10:46;;;;;;;35.28;15.70;;;;;;;;;;5042458;28;20141;-66
2022/03/29 09:13:15;;;;;;;42.05;15.02;;;;;;;;;;5043289;28;20423;-66
2022/03/29 09:15:42;;;;;;;39.28;15.50;;;;;;;;;;5038692;28;20041;-66
2022/03/29 09:18:08;;;;;;;40.22;15.35;;;;;;;;;;5042370;28;20399;-66
2022/03/29 09:20:35;;;;;;;31.23;14.52;;;;;;;;;;5042501;28;20460;-66
2022/03/29 09:23:01;;;;;;;34.55;15.65;;;;;;;;;;5041592;28;20045;-66
2022/03/29 09:25:32;;;;;;;42.95;15.77;;;;;;;;;;5042019;28;20395;-66
2022/03/29 09:27:59;;;;;;;33.60;15.50;;;;;;;;;;5028754;28;20112;-66
2022/03/29 09:30:28;;;;;;;40.85;16.60;;;;;;;;;;5046435;28;20041;-66
2022/03/29 09:32:56;;;;;;;38.35;16.17;;;;;;;;;;5047252;28;20600;-66
2022/03/29 09:35:22;;;;;;;39.90;15.88;;;;;;;;;;5047000;28;20080;-66
2022/03/29 09:37:49;;;;;;;34.80;16.88;;;;;;;;;;5045621;28;20041;-66
2022/03/29 09:40:16;;;;;;;43.08;16.83;;;;;;;;;;5027891;28;20164;-66
2022/03/29 09:42:42;;;;;;;37.30;16.02;;;;;;;;;;5046359;28;20083;-66
2022/03/29 09:45:09;;;;;;;37.80;16.67;;;;;;;;;;5046298;28;20133;-66
2022/03/29 09:47:35;;;;;;;41.38;15.73;;;;;;;;;;5045990;28;20056;-66
2022/03/29 09:50:06;;;;;;;41.78;16.92;;;;;;;;;;5028428;28;20396;-66
2022/03/29 09:52:35;;;;;;;38.85;15.52;;;;;;;;;;5044947;28;20088;-66
2022/03/29 09:55:24;;;;;;;34.08;16.63;;;;;;;;;;5042727;28;20045;-66
2022/03/29 09:57:51;;;;;;;37.80;16.35;;;;;;;;;;5046321;28;20041;-66
2022/03/29 10:00:20;;;;;;;31.45;15.65;;;;;;;;;;5046109;28;20049;-66
2022/03/29 10:02:47;;;;;;;37.80;15.55;;;;;;;;;;5046009;28;20095;-66
2022/03/29 10:05:16;;;;;;;39.42;16.08;;;;;;;;;;5045917;28;20128;-66
2022/03/29 10:07:43;;;;;;;45.03;17.35;;;;;;;;;;5044626;28;20045;-66
2022/03/29 10:10:10;;;;;;;31.63;15.07;;;;;;;;;;5045328;28;20537;-66
2022/03/29 10:12:37;;;;;;;33.35;15.60;;;;;;;;;;5045461;28;20041;-66
2022/03/29 10:15:04;;;;;;;31.20;14.95;;;;;;;;;;5045877;28;20049;-66
2022/03/29 10:17:30;;;;;;;34.05;15.82;;;;;;;;;;5045488;28;20531;-66
2022/03/29 10:19:58;;;;;;;28.13;15.20;;;;;;;;;;5045478;28;20037;-66
2022/03/29 10:22:24;;;;;;;35.67;15.63;;;;;;;;;;5045300;28;20045;-66
2022/03/29 10:24:51;;;;;;;34.42;17.73;;;;;;;;;;5045874;28;20045;-66
2022/03/29 10:27:17;;;;;;;33.53;15.32;;;;;;;;;;5045153;28;20045;-66
2022/03/29 10:29:44;;;;;;;34.85;16.10;;;;;;;;;;5045123;28;20081;-66
2022/03/29 10:32:10;;;;;;;34.00;14.95;;;;;;;;;;5045588;28;20126;-66
2022/03/29 10:34:40;;;;;;;31.42;15.23;;;;;;;;;;5045378;28;20041;-66
2022/03/29 10:37:07;;;;;;;34.05;14.95;;;;;;;;;;5043996;28;20049;-67
2022/03/29 10:39:46;;;;;;;34.10;15.70;;;;;;;;;;5044099;28;20033;-66
2022/03/29 10:42:28;;;;;;;34.78;16.73;;;;;;;;;;5043137;28;20052;-66
2022/03/29 10:44:59;;;;;;;30.73;15.07;;;;;;;;;;5045762;28;20537;-66
2022/03/29 10:47:27;;;;;;;31.20;14.77;;;;;;;;;;5044608;28;20056;-65
2022/03/29 10:49:53;;;;;;;36.05;15.80;;;;;;;;;;5045572;28;20049;-65
2022/03/29 10:52:21;;;;;;;32.38;15.68;;;;;;;;;;5041574;28;20040;-65
2022/03/29 10:54:47;;;;;;;37.58;16.92;;;;;;;;;;5044156;28;20049;-64
2022/03/29 10:57:14;;;;;;;31.48;15.18;;;;;;;;;;5039571;28;20041;-65
2022/03/29 10:59:40;;;;;;;34.30;14.68;;;;;;;;;;5040171;28;20041;-66
2022/03/29 11:02:08;;;;;;;30.48;15.13;;;;;;;;;;5044189;28;20037;-66
2022/03/29 11:04:34;;;;;;;30.33;15.43;;;;;;;;;;5041777;28;20186;-65
2022/03/29 11:07:06;;;;;;;33.30;15.32;;;;;;;;;;5043555;28;20049;-65
2022/03/29 11:09:33;;;;;;;29.40;14.63;;;;;;;;;;5042213;28;20052;-65
2022/03/29 11:12:00;;;;;;;30.38;14.27;;;;;;;;;;5042487;28;20533;-65
2022/03/29 11:14:33;;;;;;;34.72;15.40;;;;;;;;;;5044117;28;20498;-66
2022/03/29 11:17:09;;;;;;;30.67;14.95;;;;;;;;;;5044342;28;20538;-66
2022/03/29 11:19:40;;;;;;;28.70;14.45;;;;;;;;;;5026011;28;20044;-66
2022/03/29 11:22:22;;;;;;;30.20;14.75;;;;;;;;;;5043536;28;20119;-66
2022/03/29 11:24:50;;;;;;;34.22;15.18;;;;;;;;;;5044319;28;20033;-66
2022/03/29 11:27:31;;;;;;;31.05;14.10;;;;;;;;;;5040434;28;20109;-66
2022/03/29 11:29:58;;;;;;;33.30;15.02;;;;;;;;;;5043998;28;20055;-66
2022/03/29 11:32:24;;;;;;;33.30;15.25;;;;;;;;;;5044288;28;20041;-66
2022/03/29 11:34:52;;;;;;;32.00;14.38;;;;;;;;;;5043734;28;20059;-66
2022/03/29 11:37:29;;;;;;;30.38;14.68;;;;;;;;;;5043296;28;20463;-66
2022/03/29 11:39:55;;;;;;;31.50;15.50;;;;;;;;;;5043606;28;20057;-65
2022/03/29 11:42:21;;;;;;;38.13;14.18;;;;;;;;;;5042702;28;20029;-66
2022/03/29 11:44:48;;;;;;;29.00;14.13;;;;;;;;;;5043454;28;20056;-66
2022/03/29 11:47:15;;;;;;;29.63;14.85;;;;;;;;;;5044082;28;20064;-67
2022/03/29 11:49:42;;;;;;;32.75;15.73;;;;;;;;;;5024597;28;20045;-66
2022/03/29 11:52:12;;;;;;;30.98;14.23;;;;;;;;;;5041842;28;20404;-66
2022/03/29 11:54:39;;;;;;;32.40;14.35;;;;;;;;;;5043582;28;20124;-66
2022/03/29 11:57:15;;;;;;;32.97;13.85;;;;;;;;;;5043893;28;20052;-66
2022/03/29 11:59:42;;;;;;;29.95;12.75;;;;;;;;;;5043485;28;20491;-66
2022/03/29 12:02:09;;;;;;;30.58;13.65;;;;;;;;;;5043883;28;20045;-66
2022/03/29 12:04:36;;;;;;;28.20;13.35;;;;;;;;;;5043223;28;20120;-66
2022/03/29 12:07:03;;;;;;;30.90;13.50;;;;;;;;;;5042835;28;20064;-66
2022/03/29 12:09:30;;;;;;;29.83;13.38;;;;;;;;;;5043050;28;20088;-67
2022/03/29 12:11:59;;;;;;;31.80;13.33;;;;;;;;;;5043637;28;20055;-66
2022/03/29 12:14:25;;;;;;;29.20;12.68;;;;;;;;;;5043367;28;20044;-67
2022/03/29 12:16:53;;;;;;;30.30;12.18;;;;;;;;;;5043519;28;20041;-66
2022/03/29 12:19:22;;;;;;;38.33;13.07;;;;;;;;;;5043651;28;20047;-67
2022/03/29 12:21:49;;;;;;;29.20;13.40;;;;;;;;;;5042417;28;20039;-67
2022/03/29 12:24:16;;;;;;;30.10;13.65;;;;;;;;;;5039704;28;20044;-66
2022/03/29 12:26:44;;;;;;;38.22;14.15;;;;;;;;;;5043012;28;20036;-66
2022/03/29 12:29:12;;;;;;;27.83;13.07;;;;;;;;;;5043199;28;20147;-67
2022/03/29 12:31:38;;;;;;;25.92;12.68;;;;;;;;;;5025122;28;20045;-66
2022/03/29 12:34:05;;;;;;;29.77;11.85;;;;;;;;;;5038657;28;20252;-67
2022/03/29 12:36:31;;;;;;;28.23;12.02;;;;;;;;;;5042530;28;20040;-66
2022/03/29 12:39:01;;;;;;;27.58;11.57;;;;;;;;;;5043106;28;20077;-66
2022/03/29 12:41:32;;;;;;;27.40;10.82;;;;;;;;;;5043293;28;20087;-66
2022/03/29 12:43:59;;;;;;;25.60;10.93;;;;;;;;;;5043257;28;20049;-66
2022/03/29 12:46:26;;;;;;;22.00;10.25;;;;;;;;;;5042765;28;20073;-66
2022/03/29 12:48:52;;;;;;;21.88;9.98;;;;;;;;;;5043229;28;20045;-67
2022/03/29 12:51:27;;;;;;;22.60;11.13;;;;;;;;;;5042415;28;20072;-66
2022/03/29 12:53:55;;;;;;;24.67;10.93;;;;;;;;;;5043168;28;20529;-67
2022/03/29 12:56:21;;;;;;;;;;;;;;;;;;5043713;28;20562;-67
2022/03/29 12:58:49;;;;;;;25.67;10.98;;;;;;;;;;5037242;28;20426;-66
2022/03/29 13:01:24;;;;;;;26.10;11.80;;;;;;;;;;5044383;28;20088;-67
2022/03/29 13:03:51;;;;;;;26.85;10.38;;;;;;;;;;5047415;28;20052;-66
2022/03/29 13:06:17;;;;;;;26.65;11.02;;;;;;;;;;5046715;28;20132;-66
2022/03/29 13:08:43;;;;;;;33.42;11.50;;;;;;;;;;5046233;28;20060;-66
2022/03/29 13:11:16;;;;;;;23.48;10.30;;;;;;;;;;5042679;28;20098;-67
2022/03/29 13:13:43;;;;;;;23.55;9.88;;;;;;;;;;5046516;28;20129;-67
2022/03/29 13:16:18;;;;;;;25.70;9.60;;;;;;;;;;5046901;28;20490;-68
2022/03/29 13:18:46;;;;;;;26.98;9.57;;;;;;;;;;5028704;28;20056;-67
2022/03/29 13:21:14;;;;;;;23.27;10.20;;;;;;;;;;5046985;28;20056;-67
2022/03/29 13:23:43;;;;;;;20.52;9.13;;;;;;;;;;5045900;28;20291;-66
2022/03/29 13:26:09;;;;;;;;;;;;;;;;;;5047570;28;20041;-67
2022/03/29 13:28:36;;;;;;;30.33;10.98;;;;;;;;;;5046394;28;20615;-66
2022/03/29 13:31:03;;;;;;;29.92;10.80;;;;;;;;;;5046659;28;20140;-67
2022/03/29 13:33:29;;;;;;;23.70;10.13;;;;;;;;;;5046582;28;20052;-67
2022/03/29 13:35:55;;;;;;;22.95;10.18;;;;;;;;;;5046724;28;20153;-67
2022/03/29 13:38:22;;;;;;;21.85;9.23;;;;;;;;;;5046395;28;20150;-67
2022/03/29 13:40:49;;;;;;;22.98;9.20;;;;;;;;;;5046092;28;20090;-66
2022/03/29 13:43:16;;;;;;;24.33;9.05;;;;;;;;;;5046499;28;20056;-67
2022/03/29 13:45:44;;;;;;;36.97;9.80;;;;;;;;;;5046530;28;20048;-66
2022/03/29 13:48:10;;;;;;;25.48;8.73;;;;;;;;;;5046303;28;20049;-67
2022/03/29 13:50:36;;;;;;;25.73;8.98;;;;;;;;;;5046290;28;20041;-67
2022/03/29 13:53:03;;;;;;;21.17;8.25;;;;;;;;;;5045524;28;20408;-67
2022/03/29 13:55:33;;;;;;;23.65;8.77;;;;;;;;;;5046487;28;20037;-67
2022/03/29 13:58:00;;;;;;;20.58;8.05;;;;;;;;;;5046188;28;20506;-67
2022/03/29 14:00:26;;;;;;;22.10;8.57;;;;;;;;;;5045919;28;20052;-67
2022/03/29 14:02:53;;;;;;;19.45;7.70;;;;;;;;;;5046375;28;20765;-67
2022/03/29 14:05:19;;;;;;;25.65;8.73;;;;;;;;;;5046419;28;20029;-66
2022/03/29 14:07:45;;;;;;;23.25;8.70;;;;;;;;;;5044760;28;20048;-67
2022/03/29 14:10:14;;;;;;;21.20;8.18;;;;;;;;;;5027917;28;20057;-67
2022/03/29 14:12:40;;;;;;;18.40;7.75;;;;;;;;;;5045389;28;20067;-67
2022/03/29 14:15:08;;;;;;;19.95;8.63;;;;;;;;;;5046001;28;20497;-67
2022/03/29 14:17:34;;;;;;;18.63;8.13;;;;;;;;;;5041628;28;20128;-67
2022/03/29 14:20:00;;;;;;;25.60;8.63;;;;;;;;;;5045887;28;20067;-67
2022/03/29 14:22:26;;;;;;;26.75;8.07;;;;;;;;;;5045010;28;20049;-67
2022/03/29 14:24:53;;;;;;;24.52;8.35;;;;;;;;;;5046280;28;20494;-67
2022/03/29 14:27:19;;;;;;;22.75;7.80;;;;;;;;;;5045607;28;20533;-67
2022/03/29 14:29:45;;;;;;;23.83;7.90;;;;;;;;;;5045325;28;20553;-67